Terminal Aerodrome Forecast
Issued by NWS Milwaukee/Sullivan, WI

Home | Current Version | Previous Version | Text Only | Print | Product List | Glossary On
Versions: 1 2 3 4 5 6 7 8 9 10 11 12 13 14 15 16 17 18 19 20 21 22 23 24 25 26 27 28 29 30 31 32 33 34 35
000
FTUS43 KMKX 282320
TAFMSN
TAF
KMSN 282320Z 0100/0124 16005KT P6SM BKN080
     FM010400 16006KT 6SM -SN OVC040
     FM010900 20004KT P6SM OVC020
     FM011000 20004KT P6SM OVC050
     FM011800 24008KT P6SM OVC025=

USA.gov is the U.S. government's official web portal to all federal, state and local government web resources and services.